Konstantin Liivak

Scout - FCI Tallinn
23 Oct 2027
Saturday
Process

Personality

Adaptability (2) Ambition (14) Controversy (4) Loyalty (10) Pressure (14) Professionalism (16) Sportsmanship (4) Temperament (12)

Profile

Coaching Style Democratic
License Continental A
Determination 3
Man Management 3
Motivating 2
Discipline 3
Job Satisfaction
100%
Fatigue
0%
Role Scout
Wage 49.7K p/w
Contract 14.03.2030

Performance

Behaviour Good
Training Effectiveness
36%
Player Development
40%
Injury Prevention
45%
Tactical Implementation
40%

Recent Events

Assessed a player now
Assessed a player 7d ago
Attended a recruitment meeting 7d ago
Assessed a player 7d ago
Attended a recruitment meeting 14d ago
Assessed a player 14d ago
Assessed a player 14d ago
Attended a recruitment meeting 21d ago

Currently Monitoring

217
Player Club Status Ability Confidence Watched Last Observed Latest Vote
Augusto Berrondo Tristán Suárez Active 116 / 102 40% 1 20.10.2027 -
Brian Farioli Estudiantes Active 126 / 114 40% 1 20.10.2027 -
Rick Talleres Active 121 / 113 40% 1 18.10.2027 -
Juan Esteban Ávalo Aguilas Doradas Active 109 / 122 40% 1 14.10.2027 -
Thiago Calone All Boys Active 107 / 120 40% 1 14.10.2027 -
Alexandr Svirepa Isloch Active 88 / 88 40% 2 11.10.2027 -
Kirill Kirilenko Dnepr Mogilev Active 90 / 89 40% 1 11.10.2027 -
Leonel Monti Racing Active 113 / 101 40% 1 09.10.2027 -
Alejo Dramisino Atlanta Active 108 / 123 40% 1 09.10.2027 -
Denis Grechikho Dinamo Brest Active 110 / 98 40% 1 06.10.2027 -
Gianluca Pugliese Güemes Active 108 / 117 40% 1 06.10.2027 -
Michael Liguori Catania Active 134 / 123 40% 1 18.08.2027 -
Georgi Tunjov Pro Patria Active 117 / 100 40% 1 18.08.2027 -
Liam Henderson Sampdoria Active 111 / 119 40% 1 05.08.2027 -
Ahmad Gero Narva Trans Active 71 / 80 37% 1 26.07.2027 -
Pasquale Giannotti Trento Active 101 / 110 40% 1 26.07.2027 -
Flavio Ciuferri Trapani Active 93 / 99 40% 1 26.07.2027 -
Anton Lukashov Slavia Mozyr Active 102 / 107 40% 2 20.07.2027 -
Brendan Wiredu Plymouth Argyle Active 104 / 117 40% 1 20.07.2027 -
Surkhaikhan Abdullaev KAMAZ Active 100 / 102 40% 3 12.07.2027 -
Bekkhan Aliev Sevastopol Active 70 / 81 40% 3 12.07.2027 -
Mark Maksimkin Narva Trans Active 97 / 72 37% 1 21.06.2027 -
Kirill Malyarov Shinnik Lost 112 / 97 40% 5 31.05.2027 -
Soltmurad Bakaev Rodina Active 121 / 104 40% 2 30.05.2027 -
Giovanni Volpe Audace Cerignola Active 84 / 96 40% 1 30.05.2027 -
Kirill Bogdanets Volna Active 85 / 101 40% 1 30.05.2027 -
Jacobo Alcalde SKA Khabarovsk Active 93 / 93 40% 2 29.05.2027 -
Kane Drummond Oldham Athletic Active 112 / 106 40% 2 29.05.2027 -
Myles Kenlock Barnet Active 75 / 73 40% 1 26.05.2027 -
Gianluca D'Auria Potenza Active 122 / 102 40% 2 25.05.2027 -
Gianluca Contini Siracusa Active 94 / 85 40% 1 25.05.2027 -
Maxim Khramtsov Rotor Active 79 / 86 40% 2 24.05.2027 -
Danila Shilov Dinamo Stavropol Active 106 / 94 40% 4 24.05.2027 -
Nikita Kireev Dinamo Vologda Active 77 / 83 40% 2 24.05.2027 -
Edoardo Masciangelo Catania Active 133 / 98 40% 2 24.05.2027 -
Kamran Aliev SKA Khabarovsk Active 91 / 97 40% 8 23.05.2027 -
Iker Pozo Rodina Active 115 / 115 40% 2 23.05.2027 -
Filippo Costa Vicenza Active 101 / 133 40% 1 23.05.2027 -
Andrey Mazurin Yenisey Active 92 / 93 40% 1 22.05.2027 -
Darko Todorović Fakel Active 106 / 112 40% 6 21.05.2027 -
Nader Mohammadi Spartak Kostroma Active 91 / 96 40% 3 21.05.2027 -
Michele Emmausso Cosenza Active 86 / 120 40% 1 21.05.2027 -
Ruslan Gogniev Dinamo Stavropol Active 93 / 75 40% 3 20.05.2027 -
Ilja Agapov Ufa Active 126 / 112 40% 3 20.05.2027 -
Guillaume Furrer Lecco Active 133 / 105 40% 2 20.05.2027 -
Eduard Valiakhmetov Neftekhimik Active 98 / 99 40% 2 19.05.2027 -
Ousmane Ndong Akhmat Grozny Active 104 / 104 40% 1 19.05.2027 -
Daniil Penchikov Arsenal Tula Active 91 / 112 40% 3 18.05.2027 -
Konstantin Kovalev Volga Active 90 / 89 40% 3 18.05.2027 -
Léo Abreu Picerno Active 77 / 113 40% 1 18.05.2027 -
Danila Yezhkov Dinamo Vologda Active 70 / 86 40% 2 17.05.2027 -
Gevork Sarkisyan Saturn Active 83 / 81 40% 1 17.05.2027 -
Dmitry Kuptsov Spartak Tambov Active 91 / 73 40% 2 16.05.2027 -
Andrea Mattioli Arzignano Active 82 / 111 40% 1 16.05.2027 -
Pavel Maslov Chaika Active 92 / 109 40% 2 15.05.2027 -
Marko Bugarin Spartak Kostroma Active 95 / 112 40% 2 15.05.2027 -
Jordan Gabriel Port Vale Active 94 / 105 40% 1 15.05.2027 -
Alan Tsaraev Arsenal Tula Active 103 / 104 40% 3 12.05.2027 -
Danila Yanov Shinnik Active 99 / 95 40% 2 12.05.2027 -
Mikhail Gainov Dinamo Stavropol Active 79 / 91 40% 1 12.05.2027 -
Said Aliev Rotor Active 109 / 86 40% 1 10.05.2027 -
Vasily Cherov Ufa Active 95 / 89 40% 3 09.05.2027 -
Alessandro Bellemo Vicenza Active 105 / 97 40% 1 09.05.2027 -
Giorgi Kantaria Neftekhimik Active 113 / 109 40% 1 09.05.2027 -
Krasian Kolev Chernomorets Active 87 / 95 40% 1 07.05.2027 -
Anton Betyuzhnov Dinamo Vologda Active 71 / 66 40% 4 05.05.2027 -
Miloš Brnović Arsenal Tula Active 125 / 100 40% 2 04.05.2027 -
Vladislav Kamilov Ufa Active 99 / 114 40% 1 04.05.2027 -
Ramazan Gadjimuradov Chelyabinsk Active 103 / 102 40% 1 03.05.2027 -
Ruslan Baitukov Chelyabinsk Active 99 / 99 40% 3 02.05.2027 -
Roman Zaschepkin KAMAZ Active 93 / 105 40% 1 02.05.2027 -
Alexey Berdnikov Chelyabinsk Active 110 / 101 40% 1 02.05.2027 -
Daniil Agureev Amkar Active 91 / 97 40% 4 01.05.2027 -
Edarlyn Reyes Arsenal Tula Active 96 / 105 40% 3 01.05.2027 -
Vladislav Agalakov Metallurg Active 63 / 81 40% 2 28.04.2027 -
Arseny Prokurorov Salyut Active 82 / 71 40% 1 28.04.2027 -
Nicola Dalmonte Trento Active 122 / 97 40% 1 27.04.2027 -
Alexandr Novikov Dinamo Bryansk Active 75 / 86 40% 2 24.04.2027 -
Oleg Krasilnichenko Volga Active 100 / 80 40% 1 24.04.2027 -
Dilan Ortíz Ufa Active 92 / 93 40% 1 23.04.2027 -
Sven Karič Nizhniy Novgorod Active 111 / 123 40% 3 22.04.2027 -
Ilja Zhigulev Chernomorets Active 96 / 106 40% 2 22.04.2027 -
Anton Antonov Chernomorets Active 87 / 96 40% 1 22.04.2027 -
Ilnur Badrtdinov Metallurg Active 73 / 78 40% 1 22.04.2027 -
Ilja Safronov Rotor Active 91 / 90 40% 4 20.04.2027 -
Sam Gale Gillingham Active 79 / 102 40% 1 18.04.2027 -
Nikita Pechenkin Sokol Active 93 / 91 40% 2 17.04.2027 -
Timur Melekestsev Arsenal Tula Active 81 / 88 40% 1 17.04.2027 -
Omar Popov Dinamo St Petersburg Active 71 / 67 40% 2 16.04.2027 -
Evgeny Kharin Ural Active 111 / 96 40% 2 15.04.2027 -
Nikolay Boyarkin Salyut Active 91 / 93 40% 1 15.04.2027 -
Nikolay Giorgobiani Fakel Active 119 / 113 40% 1 13.04.2027 -
Jere Vrcić Birkirkara Active 83 / 100 40% 2 11.04.2027 -
Garrik Levin Chelyabinsk Active 102 / 110 40% 3 09.04.2027 -
Migran Ageyan Ufa Active 85 / 84 40% 5 09.04.2027 -
Arseny Vainer Nosta Active 69 / 79 40% 1 09.04.2027 -
Kristijan Bistrović Akron Active 132 / 112 40% 1 09.04.2027 -
Danil Lipovoy Ufa Active 108 / 88 40% 1 08.04.2027 -
Nikita Yershov Kosmos Active 96 / 81 40% 1 08.04.2027 -
Artem Sokol Rodina Active 106 / 101 40% 1 08.04.2027 -
Marat Tlekhugov Yenisey Active 98 / 85 40% 1 06.04.2027 -
Vyacheslav Yakimov Fakel Active 120 / 104 40% 1 06.04.2027 -
Abu-Said Eldarushev Rotor Active 85 / 108 40% 1 05.04.2027 -
Igor Konovalov Chernomorets Active 105 / 90 40% 1 05.04.2027 -
Denis Pokotylo Chelyabinsk Active 71 / 79 40% 2 04.04.2027 -
Nikita Pogrebnev Ryazan Active 88 / 71 40% 1 03.04.2027 -
Artem Ntumba Rubin Yalta Active 85 / 89 40% 2 31.03.2027 -
Aaron Drinan Swindon Town Active 114 / 102 40% 1 31.03.2027 -
Youssef Dalouzi Renaissance Active 72 / 83 40% 1 30.03.2027 -
Timur Zhamaletdinov Arsenal Tula Active 85 / 88 40% 1 29.03.2027 -
Aleksej Golijanin Sokol Active 96 / 78 40% 1 28.03.2027 -
Aliou Diakité Real Bamako Active 90 / 113 40% 1 26.03.2027 -
Ansor Khabibov Ryazan Active 100 / 87 40% 1 26.03.2027 -
Denis Mironov Shinnik Active 92 / 100 40% 1 25.03.2027 -
Cheickna Samaké Djoliba Active 110 / 99 40% 1 22.03.2027 -
Mikhail Zabotkin Volna Active 87 / 89 40% 1 21.03.2027 -
Patrick Schmidt Tarxien Rainbows Active 116 / 112 40% 2 20.03.2027 -
Arshak Koryan SKA Khabarovsk Active 93 / 94 40% 1 18.03.2027 -
Faruk Gogić Spartak Kostroma Active 100 / 99 40% 3 17.03.2027 -
Tigran Avanesyan Arsenal Tula Active 100 / 98 40% 1 17.03.2027 -
Nikita Ponomarev Salyut Active 74 / 73 40% 2 16.03.2027 -
Magomed Nasibov Pobeda Active 85 / 95 40% 1 13.03.2027 -
Ilja Gruznov Khimik Active 86 / 94 40% 2 12.03.2027 -
Bulat Gatin Chelyabinsk Active 89 / 92 40% 1 12.03.2027 -
Saliou Guindo Real Bamako Active 109 / 108 40% 1 09.03.2027 -
Artur Arustamyan KAMAZ Active 86 / 91 40% 1 08.03.2027 -
Vladislav Yakovlev Volga Active 105 / 96 40% 1 04.03.2027 -
Alexandr Saplinov Volga Active 97 / 89 40% 1 03.03.2027 -
David Davidyan Rotor Active 89 / 94 40% 2 02.03.2027 -
Eduard Bagrintsev Znamya Truda Active 89 / 70 40% 1 28.02.2027 -
Nikolay Tarasov Spartak Kostroma Active 91 / 94 40% 2 27.02.2027 -
Ilja Stefanovich Leningradets Active 97 / 94 40% 1 23.02.2027 -
Dmitry Savin Metallurg Active 67 / 86 40% 1 23.02.2027 -
Alexandr Shlenkin Dinamo Bryansk Active 88 / 70 40% 1 21.02.2027 -
Alexandr Ektov Nizhniy Novgorod Active 102 / 123 40% 1 20.02.2027 -
Andrey Khityaev Rotor Active 104 / 93 40% 5 18.02.2027 -
Nikolay Pokidyshev Rotor Active 93 / 111 40% 1 18.02.2027 -
Maxim Kutovoy Salyut Active 90 / 80 40% 1 16.02.2027 -
Ilja Azyavin Arsenal Tula Active 102 / 84 40% 2 14.02.2027 -
Vladislav Masternoy SKA Khabarovsk Active 85 / 88 40% 2 13.02.2027 -
Nichita Moțpan SKA Khabarovsk Active 90 / 114 40% 1 08.02.2027 -
Daniil Grigorjev Metallurg Active 78 / 95 40% 1 06.02.2027 -
Artur Murza Volga Active 78 / 105 40% 1 04.02.2027 -
Joonas Ainsalu Levadia Active 65 / 65 37% 1 11.01.2027 -
Denis Yakuba Dinamo Stavropol Active 110 / 88 40% 1 07.01.2027 -
Yegor Danilkin Rotor Active 99 / 93 40% 1 04.01.2027 -
Ivan Kudryashov Astrakhan Active 76 / 86 40% 1 02.01.2027 -
Razhab Magomedov Dinamo Makhachkala Active 105 / 94 40% 1 02.01.2027 -
Maxim Vedeneev Metallurg Active 74 / 86 40% 1 30.12.2026 -
Rostislav Soldatenko Torpedo Moscow Active 94 / 107 40% 2 25.12.2026 -
Nikita Yanovich Tyumen Active 78 / 101 40% 1 24.12.2026 -
Oleg Suvorov Mashuk Active 96 / 96 40% 1 24.12.2026 -
Alexandr Krikunenko Salyut Active 90 / 76 40% 1 22.12.2026 -
Rinat Shakerov Volga Active 93 / 104 40% 1 22.12.2026 -
Danila Tretyak Molodechno Active 92 / 88 40% 1 22.12.2026 -
Nikita Chagrov Rotor Active 111 / 91 40% 3 21.12.2026 -
Daniil Frolkin Shinnik Active 114 / 101 40% 1 21.12.2026 -
Semyon Bobrov Saturn Active 71 / 64 40% 1 20.12.2026 -
Vladislav Zernaev Salyut Active 78 / 89 40% 1 19.12.2026 -
Nikita Pavlov Chaika Active 68 / 89 40% 1 19.12.2026 -
Stanislav Magkeev Fakel Active 98 / 99 40% 2 15.12.2026 -
Tom Smith Chertanovo Active 96 / 75 40% 1 13.12.2026 -
Igor Leschuk Dinamo Moscow Active 109 / 127 40% 1 11.12.2026 -
Sergey Volkov Rodina Active 112 / 109 40% 1 09.12.2026 -
Oleg Nikolaev Sibir Active 97 / 82 40% 2 08.12.2026 -
Artem Isik Dinamo Vologda Active 89 / 95 40% 1 07.12.2026 -
David Byazrov Alania Active 76 / 91 40% 1 07.12.2026 -
Timur Kraikov Sokol Active 85 / 96 40% 1 07.12.2026 -
Andrey Mendel Baltika Active 110 / 108 40% 1 01.12.2026 -
Ruslan Fischenko Rodina Active 111 / 96 40% 1 29.11.2026 -
Abdula Bagamaev Fakel Active 97 / 107 40% 1 29.11.2026 -
Léo Cordeiro Ural Active 127 / 106 40% 1 20.11.2026 -
Luka Gagnidze Dinamo Moscow Active 123 / 116 40% 2 16.11.2026 -
Yegor Noskov SKA Khabarovsk Active 93 / 109 40% 1 15.11.2026 -
Konstantin Kertanov Chelyabinsk Active 100 / 99 40% 1 06.11.2026 -
Vladislav Volkov Veles Active 80 / 74 40% 1 02.11.2026 -
Artem Bykov Sokol Active 87 / 101 40% 1 31.10.2026 -
Dominik Oroz Krylya Sovetov Active 103 / 116 40% 1 26.10.2026 -
Ilja Klementjev Textilschik Active 82 / 80 40% 1 21.10.2026 -
Kevin Pina Krasnodar Active 128 / 130 40% 1 18.10.2026 -
Oleg Isaenko Arsenal Tula Active 87 / 89 40% 1 15.10.2026 -
Maxim Nenakhov Lokomotiv Moscow Active 131 / 129 40% 1 14.10.2026 -
Islamzhan Nasyrov Ryazan Active 91 / 87 40% 1 14.10.2026 -
Kirill Rodionov Vitebsk Active 81 / 81 40% 1 09.10.2026 -
Lucas Arce Godoy Cruz Active 133 / 111 40% 1 09.10.2026 -
Maxim Ignatjev Rubin Active 99 / 92 40% 1 06.10.2026 -
Ruslan Shagiakhmetov Volga Active 93 / 99 40% 2 04.10.2026 -
Ilya Rutskiy Torpedo-BelAZ Active 100 / 108 40% 1 03.10.2026 -
Nikita Bylinkin Slutsk Active 99 / 80 40% 1 03.10.2026 -
Konstantin Nizhegorodov Rubin Active 112 / 88 40% 1 02.10.2026 -
Alexandr Dzhigero Slavia Mozyr Active 86 / 77 40% 1 02.10.2026 -
Evgeniy Yudchits Isloch Active 93 / 108 40% 1 01.10.2026 -
Nikita Korzun Torpedo-BelAZ Active 87 / 92 40% 1 01.10.2026 -
Pavel Pashevich Gomel Active 106 / 83 40% 1 27.09.2026 -
Abdoul Aziz Touré Dinamo Minsk Active 69 / 84 40% 1 25.09.2026 -
Alexandr Osipov Krasnodar Active 94 / 110 40% 1 25.09.2026 -
Dmitriy Lisakovich Dnepr Mogilev Active 105 / 84 40% 1 22.09.2026 -
Krasimir Kapov Molodechno Active 86 / 70 40% 1 22.09.2026 -
Valentin Paltsev Krasnodar Active 113 / 101 40% 1 19.09.2026 -
Mohamed Azzi CSKA Moscow Active 112 / 115 40% 1 19.09.2026 -
Vitaliy Likhtin Slavia Mozyr Active 80 / 86 40% 1 17.09.2026 -
Egor Parkhomenko Dinamo Brest Active 110 / 96 40% 1 17.09.2026 -
Maxim Laikin KAMAZ Active 89 / 100 40% 1 16.09.2026 -
Kirill Kaplenko BATE Active 96 / 104 40% 1 16.09.2026 -
Ruslan Arlouski BATE Active 83 / 77 40% 1 15.09.2026 -
Kirill Yelagin Smorgon Active 69 / 76 40% 1 15.09.2026 -
Pavel Chikida Slavia Mozyr Active 73 / 88 40% 1 13.09.2026 -
Vladislav Grekovich Osipovichi Active 61 / 69 40% 1 11.09.2026 -
Viktor Sotnikov Gomel Active 104 / 80 40% 1 09.09.2026 -
Stanislav Atrashkevich Molodechno Active 86 / 88 40% 1 09.09.2026 -
Nikita Melnikov Slavia Mozyr Active 90 / 97 40% 1 07.09.2026 -
Artur Nazarenko Neman Active 76 / 97 40% 1 07.09.2026 -
Brent Klavan Tammeka Active 33 / 44 37% 1 17.08.2026 -
Jorge Espejo Universidad de Concepcion Active 104 / 115 40% 1 10.08.2026 -
Kaimar Saag Active 95 / 77 37% 1 03.08.2026 -
Alexey Dayneko Neman Active 95 / 98 40% 1 01.08.2026 -
Amine Benchaib Kauno Zalgiris Active 121 / 92 40% 1 01.08.2026 -